sensor_id;sensor_type;location;lat;lon;timestamp;pressure;altitude;pressure_sealevel;temperature;humidity
69570;BME280;56781;42.292;23.146;2022-07-29T00:01:39;95680.78;;;17.11;100.00
69570;BME280;56781;42.292;23.146;2022-07-29T00:04:06;95708.94;;;17.22;100.00
69570;BME280;56781;42.292;23.146;2022-07-29T00:06:33;95717.97;;;17.14;100.00
69570;BME280;56781;42.292;23.146;2022-07-29T00:08:59;95690.09;;;16.89;100.00
69570;BME280;56781;42.292;23.146;2022-07-29T00:11:26;95688.47;;;16.75;100.00
69570;BME280;56781;42.292;23.146;2022-07-29T00:13:53;95722.19;;;16.90;100.00
69570;BME280;56781;42.292;23.146;2022-07-29T00:16:20;95719.47;;;16.78;100.00
69570;BME280;56781;42.292;23.146;2022-07-29T00:18:47;95701.34;;;16.78;100.00
69570;BME280;56781;42.292;23.146;2022-07-29T00:21:14;95711.75;;;16.89;100.00
69570;BME280;56781;42.292;23.146;2022-07-29T00:23:41;95673.53;;;16.78;100.00
69570;BME280;56781;42.292;23.146;2022-07-29T00:26:08;95715.44;;;16.84;100.00
69570;BME280;56781;42.292;23.146;2022-07-29T00:28:35;95711.94;;;16.83;100.00
69570;BME280;56781;42.292;23.146;2022-07-29T00:31:01;95727.50;;;16.87;100.00
69570;BME280;56781;42.292;23.146;2022-07-29T00:33:30;95700.78;;;16.85;100.00
69570;BME280;56781;42.292;23.146;2022-07-29T00:35:56;95729.09;;;17.00;100.00
69570;BME280;56781;42.292;23.146;2022-07-29T00:38:23;95720.84;;;16.84;100.00
69570;BME280;56781;42.292;23.146;2022-07-29T00:40:51;95694.97;;;16.62;100.00
69570;BME280;56781;42.292;23.146;2022-07-29T00:43:18;95698.56;;;16.66;100.00
69570;BME280;56781;42.292;23.146;2022-07-29T00:45:45;95700.03;;;16.63;100.00
69570;BME280;56781;42.292;23.146;2022-07-29T00:48:13;95726.81;;;16.77;100.00
69570;BME280;56781;42.292;23.146;2022-07-29T00:50:40;95714.66;;;16.83;100.00
69570;BME280;56781;42.292;23.146;2022-07-29T00:53:07;95678.97;;;16.57;100.00
69570;BME280;56781;42.292;23.146;2022-07-29T00:55:36;95723.16;;;16.73;100.00
69570;BME280;56781;42.292;23.146;2022-07-29T00:58:04;95697.41;;;16.55;100.00
69570;BME280;56781;42.292;23.146;2022-07-29T01:00:31;95703.75;;;16.59;100.00
69570;BME280;56781;42.292;23.146;2022-07-29T01:02:58;95712.53;;;16.68;100.00
69570;BME280;56781;42.292;23.146;2022-07-29T01:05:26;95687.94;;;16.49;100.00
69570;BME280;56781;42.292;23.146;2022-07-29T01:08:15;95689.50;;;16.37;100.00
69570;BME280;56781;42.292;23.146;2022-07-29T01:10:44;95675.59;;;16.27;100.00
69570;BME280;56781;42.292;23.146;2022-07-29T01:13:13;95689.88;;;16.48;100.00
69570;BME280;56781;42.292;23.146;2022-07-29T01:15:51;95686.28;;;16.23;100.00
69570;BME280;56781;42.292;23.146;2022-07-29T01:18:30;95670.03;;;15.90;100.00
69570;BME280;56781;42.292;23.146;2022-07-29T01:24:07;95708.78;;;16.15;100.00
69570;BME280;56781;42.292;23.146;2022-07-29T01:29:48;95687.56;;;16.05;100.00
69570;BME280;56781;42.292;23.146;2022-07-29T01:32:25;95710.53;;;16.11;100.00
69570;BME280;56781;42.292;23.146;2022-07-29T01:35:17;95669.94;;;15.99;100.00
69570;BME280;56781;42.292;23.146;2022-07-29T01:38:01;95663.06;;;15.89;100.00
69570;BME280;56781;42.292;23.146;2022-07-29T01:40:48;95675.22;;;15.95;100.00
69570;BME280;56781;42.292;23.146;2022-07-29T01:43:21;95680.25;;;16.05;100.00
69570;BME280;56781;42.292;23.146;2022-07-29T01:45:54;95703.94;;;16.21;100.00
69570;BME280;56781;42.292;23.146;2022-07-29T01:48:41;95670.69;;;16.08;100.00
69570;BME280;56781;42.292;23.146;2022-07-29T01:51:30;95679.06;;;16.15;100.00
69570;BME280;56781;42.292;23.146;2022-07-29T01:56:49;95668.84;;;16.00;100.00
69570;BME280;56781;42.292;23.146;2022-07-29T01:59:19;95641.66;;;15.84;100.00
69570;BME280;56781;42.292;23.146;2022-07-29T02:01:50;95664.78;;;15.93;100.00
69570;BME280;56781;42.292;23.146;2022-07-29T02:04:20;95681.69;;;16.03;100.00
69570;BME280;56781;42.292;23.146;2022-07-29T02:07:00;95667.31;;;16.11;100.00
69570;BME280;56781;42.292;23.146;2022-07-29T02:09:30;95665.69;;;15.98;100.00
69570;BME280;56781;42.292;23.146;2022-07-29T02:11:59;95664.22;;;16.00;100.00
69570;BME280;56781;42.292;23.146;2022-07-29T02:14:30;95674.84;;;16.05;100.00
69570;BME280;56781;42.292;23.146;2022-07-29T02:17:03;95682.88;;;16.14;100.00
69570;BME280;56781;42.292;23.146;2022-07-29T02:19:32;95659.31;;;16.02;100.00
69570;BME280;56781;42.292;23.146;2022-07-29T02:22:00;95682.00;;;16.22;100.00
69570;BME280;56781;42.292;23.146;2022-07-29T02:24:28;95662.47;;;16.04;100.00
69570;BME280;56781;42.292;23.146;2022-07-29T02:27:07;95650.84;;;16.04;100.00
69570;BME280;56781;42.292;23.146;2022-07-29T02:29:35;95690.66;;;16.15;100.00
69570;BME280;56781;42.292;23.146;2022-07-29T02:32:03;95653.25;;;15.84;100.00
69570;BME280;56781;42.292;23.146;2022-07-29T02:34:34;95688.81;;;16.07;100.00
69570;BME280;56781;42.292;23.146;2022-07-29T02:37:02;95688.94;;;16.11;100.00
69570;BME280;56781;42.292;23.146;2022-07-29T02:39:34;95690.75;;;16.19;100.00
69570;BME280;56781;42.292;23.146;2022-07-29T02:42:11;95682.75;;;16.10;100.00
69570;BME280;56781;42.292;23.146;2022-07-29T02:44:40;95641.38;;;15.77;100.00
69570;BME280;56781;42.292;23.146;2022-07-29T02:47:21;95657.84;;;15.84;100.00
69570;BME280;56781;42.292;23.146;2022-07-29T02:50:11;95657.47;;;15.73;100.00
69570;BME280;56781;42.292;23.146;2022-07-29T02:52:44;95689.13;;;16.06;100.00
69570;BME280;56781;42.292;23.146;2022-07-29T02:55:25;95694.47;;;15.93;100.00
69570;BME280;56781;42.292;23.146;2022-07-29T02:58:25;95629.41;;;15.44;100.00
69570;BME280;56781;42.292;23.146;2022-07-29T03:01:17;95645.34;;;15.58;100.00
69570;BME280;56781;42.292;23.146;2022-07-29T03:03:49;95653.34;;;15.67;100.00
69570;BME280;56781;42.292;23.146;2022-07-29T03:06:18;95663.34;;;15.75;100.00
69570;BME280;56781;42.292;23.146;2022-07-29T03:09:05;95650.84;;;15.62;100.00
69570;BME280;56781;42.292;23.146;2022-07-29T03:11:39;95686.09;;;15.86;100.00
69570;BME280;56781;42.292;23.146;2022-07-29T03:14:19;95653.03;;;15.68;100.00
69570;BME280;56781;42.292;23.146;2022-07-29T03:16:49;95667.34;;;15.69;100.00
69570;BME280;56781;42.292;23.146;2022-07-29T03:19:18;95650.97;;;15.65;100.00
69570;BME280;56781;42.292;23.146;2022-07-29T03:21:47;95658.94;;;15.62;100.00
69570;BME280;56781;42.292;23.146;2022-07-29T03:24:28;95660.94;;;15.52;100.00
69570;BME280;56781;42.292;23.146;2022-07-29T03:26:56;95646.75;;;15.35;100.00
69570;BME280;56781;42.292;23.146;2022-07-29T03:29:23;95678.41;;;15.46;100.00
69570;BME280;56781;42.292;23.146;2022-07-29T03:31:58;95691.53;;;15.57;100.00
69570;BME280;56781;42.292;23.146;2022-07-29T03:34:28;95686.59;;;15.59;100.00
69570;BME280;56781;42.292;23.146;2022-07-29T03:37:00;95682.53;;;15.73;100.00
69570;BME280;56781;42.292;23.146;2022-07-29T03:39:29;95685.00;;;15.58;100.00
69570;BME280;56781;42.292;23.146;2022-07-29T03:41:59;95672.66;;;15.27;100.00
69570;BME280;56781;42.292;23.146;2022-07-29T03:44:27;95666.19;;;15.19;100.00
69570;BME280;56781;42.292;23.146;2022-07-29T03:46:59;95657.00;;;15.20;100.00
69570;BME280;56781;42.292;23.146;2022-07-29T03:49:29;95693.22;;;15.40;100.00
69570;BME280;56781;42.292;23.146;2022-07-29T03:52:00;95681.22;;;15.29;100.00
69570;BME280;56781;42.292;23.146;2022-07-29T03:54:28;95668.88;;;15.49;100.00
69570;BME280;56781;42.292;23.146;2022-07-29T03:56:59;95666.31;;;15.52;100.00
69570;BME280;56781;42.292;23.146;2022-07-29T03:59:32;95666.34;;;15.44;100.00
69570;BME280;56781;42.292;23.146;2022-07-29T04:02:03;95670.69;;;15.36;100.00
69570;BME280;56781;42.292;23.146;2022-07-29T04:04:34;95679.53;;;15.45;100.00
69570;BME280;56781;42.292;23.146;2022-07-29T04:07:03;95668.88;;;15.49;100.00
69570;BME280;56781;42.292;23.146;2022-07-29T04:09:32;95674.22;;;15.28;100.00
69570;BME280;56781;42.292;23.146;2022-07-29T04:11:59;95698.59;;;15.40;100.00
69570;BME280;56781;42.292;23.146;2022-07-29T04:14:30;95680.03;;;15.39;100.00
69570;BME280;56781;42.292;23.146;2022-07-29T04:16:57;95704.59;;;15.76;100.00
69570;BME280;56781;42.292;23.146;2022-07-29T04:19:24;95684.56;;;15.77;100.00
69570;BME280;56781;42.292;23.146;2022-07-29T04:21:51;95690.66;;;15.94;100.00
69570;BME280;56781;42.292;23.146;2022-07-29T04:24:18;95675.78;;;15.88;100.00
69570;BME280;56781;42.292;23.146;2022-07-29T04:26:46;95677.53;;;15.84;100.00
69570;BME280;56781;42.292;23.146;2022-07-29T04:29:13;95670.38;;;15.88;100.00
69570;BME280;56781;42.292;23.146;2022-07-29T04:31:41;95686.78;;;16.04;100.00
69570;BME280;56781;42.292;23.146;2022-07-29T04:34:09;95699.72;;;16.32;100.00
69570;BME280;56781;42.292;23.146;2022-07-29T04:36:36;95690.09;;;16.22;100.00
69570;BME280;56781;42.292;23.146;2022-07-29T04:39:03;95692.59;;;16.27;100.00
69570;BME280;56781;42.292;23.146;2022-07-29T04:41:30;95693.97;;;16.33;100.00
69570;BME280;56781;42.292;23.146;2022-07-29T04:43:59;95689.50;;;16.50;100.00
69570;BME280;56781;42.292;23.146;2022-07-29T04:46:34;95711.66;;;16.64;100.00
69570;BME280;56781;42.292;23.146;2022-07-29T04:49:02;95679.63;;;16.54;100.00
69570;BME280;56781;42.292;23.146;2022-07-29T04:51:31;95712.63;;;16.80;100.00
69570;BME280;56781;42.292;23.146;2022-07-29T04:53:58;95701.13;;;16.83;100.00
69570;BME280;56781;42.292;23.146;2022-07-29T04:56:25;95702.84;;;17.00;100.00
69570;BME280;56781;42.292;23.146;2022-07-29T04:58:52;95706.34;;;17.13;100.00
69570;BME280;56781;42.292;23.146;2022-07-29T05:01:19;95707.50;;;17.24;100.00
69570;BME280;56781;42.292;23.146;2022-07-29T05:03:47;95728.34;;;17.48;100.00
69570;BME280;56781;42.292;23.146;2022-07-29T05:06:13;95733.41;;;17.62;100.00
69570;BME280;56781;42.292;23.146;2022-07-29T05:08:40;95713.66;;;17.74;100.00
69570;BME280;56781;42.292;23.146;2022-07-29T05:11:07;95715.63;;;18.14;95.88
69570;BME280;56781;42.292;23.146;2022-07-29T05:13:38;95741.09;;;18.37;94.64
69570;BME280;56781;42.292;23.146;2022-07-29T05:16:12;95711.41;;;18.29;93.52
69570;BME280;56781;42.292;23.146;2022-07-29T05:18:40;95726.41;;;18.38;93.56
69570;BME280;56781;42.292;23.146;2022-07-29T05:21:07;95723.78;;;18.14;95.66
69570;BME280;56781;42.292;23.146;2022-07-29T05:23:34;95739.34;;;18.45;94.46
69570;BME280;56781;42.292;23.146;2022-07-29T05:26:01;95708.75;;;18.45;93.81
69570;BME280;56781;42.292;23.146;2022-07-29T05:28:33;95727.97;;;18.68;93.23
69570;BME280;56781;42.292;23.146;2022-07-29T05:31:03;95727.28;;;18.71;93.93
69570;BME280;56781;42.292;23.146;2022-07-29T05:33:30;95732.59;;;18.95;92.93
69570;BME280;56781;42.292;23.146;2022-07-29T05:36:01;95678.66;;;18.78;93.27
69570;BME280;56781;42.292;23.146;2022-07-29T05:38:28;95689.19;;;18.95;92.83
69570;BME280;56781;42.292;23.146;2022-07-29T05:40:58;95731.28;;;19.37;91.82
69570;BME280;56781;42.292;23.146;2022-07-29T05:43:27;95702.47;;;19.32;91.63
69570;BME280;56781;42.292;23.146;2022-07-29T05:45:54;95689.31;;;19.50;88.47
69570;BME280;56781;42.292;23.146;2022-07-29T05:48:24;95719.78;;;19.75;88.42
69570;BME280;56781;42.292;23.146;2022-07-29T05:50:51;95718.38;;;19.81;90.14
69570;BME280;56781;42.292;23.146;2022-07-29T05:53:18;95743.66;;;20.01;89.13
69570;BME280;56781;42.292;23.146;2022-07-29T05:55:47;95683.97;;;19.69;89.73
69570;BME280;56781;42.292;23.146;2022-07-29T05:58:14;95715.00;;;20.04;87.48
69570;BME280;56781;42.292;23.146;2022-07-29T06:00:41;95719.28;;;20.24;85.76
69570;BME280;56781;42.292;23.146;2022-07-29T06:03:08;95724.16;;;20.34;85.87
69570;BME280;56781;42.292;23.146;2022-07-29T06:05:35;95718.72;;;20.34;87.37
69570;BME280;56781;42.292;23.146;2022-07-29T06:08:03;95690.53;;;20.43;85.57
69570;BME280;56781;42.292;23.146;2022-07-29T06:10:34;95698.78;;;20.66;83.85
69570;BME280;56781;42.292;23.146;2022-07-29T06:13:01;95736.16;;;20.92;84.79
69570;BME280;56781;42.292;23.146;2022-07-29T06:15:29;95706.72;;;20.74;82.82
69570;BME280;56781;42.292;23.146;2022-07-29T06:17:58;95729.59;;;21.16;83.46
69570;BME280;56781;42.292;23.146;2022-07-29T06:20:31;95734.50;;;21.30;81.42
69570;BME280;56781;42.292;23.146;2022-07-29T06:22:59;95721.19;;;21.24;84.35
69570;BME280;56781;42.292;23.146;2022-07-29T06:25:27;95719.09;;;21.37;82.22
69570;BME280;56781;42.292;23.146;2022-07-29T06:27:56;95714.47;;;21.18;84.58
69570;BME280;56781;42.292;23.146;2022-07-29T06:30:23;95730.03;;;21.64;80.98
69570;BME280;56781;42.292;23.146;2022-07-29T06:32:50;95696.69;;;21.48;84.06
69570;BME280;56781;42.292;23.146;2022-07-29T06:35:18;95718.44;;;21.71;82.37
69570;BME280;56781;42.292;23.146;2022-07-29T06:38:07;95731.75;;;21.76;80.44
69570;BME280;56781;42.292;23.146;2022-07-29T06:40:55;95723.16;;;22.00;80.08
69570;BME280;56781;42.292;23.146;2022-07-29T06:43:31;95716.25;;;22.37;77.88
69570;BME280;56781;42.292;23.146;2022-07-29T06:46:01;95729.44;;;22.65;77.03
69570;BME280;56781;42.292;23.146;2022-07-29T06:48:29;95715.19;;;22.82;75.97
69570;BME280;56781;42.292;23.146;2022-07-29T06:50:55;95704.72;;;22.88;74.33
69570;BME280;56781;42.292;23.146;2022-07-29T06:53:23;95682.09;;;22.87;75.59
69570;BME280;56781;42.292;23.146;2022-07-29T06:55:49;95721.59;;;23.34;73.40
69570;BME280;56781;42.292;23.146;2022-07-29T06:58:16;95691.81;;;23.26;74.19
69570;BME280;56781;42.292;23.146;2022-07-29T07:00:47;95720.53;;;23.53;72.62
69570;BME280;56781;42.292;23.146;2022-07-29T07:03:15;95704.00;;;23.35;73.77
69570;BME280;56781;42.292;23.146;2022-07-29T07:05:42;95715.47;;;23.55;73.09
69570;BME280;56781;42.292;23.146;2022-07-29T07:08:10;95720.44;;;23.87;73.25
69570;BME280;56781;42.292;23.146;2022-07-29T07:10:37;95706.22;;;23.67;71.70
69570;BME280;56781;42.292;23.146;2022-07-29T07:13:05;95690.72;;;23.85;71.61
69570;BME280;56781;42.292;23.146;2022-07-29T07:15:32;95690.34;;;23.91;71.91
69570;BME280;56781;42.292;23.146;2022-07-29T07:18:06;95685.72;;;23.95;72.66
69570;BME280;56781;42.292;23.146;2022-07-29T07:20:34;95722.22;;;24.31;71.22
69570;BME280;56781;42.292;23.146;2022-07-29T07:23:03;95687.09;;;24.40;68.48
69570;BME280;56781;42.292;23.146;2022-07-29T07:25:31;95704.69;;;24.43;67.98
69570;BME280;56781;42.292;23.146;2022-07-29T07:27:58;95697.72;;;24.52;68.23
69570;BME280;56781;42.292;23.146;2022-07-29T07:30:28;95688.72;;;24.52;66.89
69570;BME280;56781;42.292;23.146;2022-07-29T07:32:56;95665.16;;;24.29;68.03
69570;BME280;56781;42.292;23.146;2022-07-29T07:35:24;95654.69;;;24.46;64.33
69570;BME280;56781;42.292;23.146;2022-07-29T07:37:53;95679.72;;;24.48;67.23
69570;BME280;56781;42.292;23.146;2022-07-29T07:40:21;95685.91;;;24.38;67.65
69570;BME280;56781;42.292;23.146;2022-07-29T07:42:48;95699.63;;;24.45;67.93
69570;BME280;56781;42.292;23.146;2022-07-29T07:45:15;95692.72;;;24.76;68.38
69570;BME280;56781;42.292;23.146;2022-07-29T07:47:44;95666.53;;;25.04;66.14
69570;BME280;56781;42.292;23.146;2022-07-29T07:50:11;95701.75;;;25.02;64.90
69570;BME280;56781;42.292;23.146;2022-07-29T07:52:49;95684.91;;;24.96;65.99
69570;BME280;56781;42.292;23.146;2022-07-29T07:55:20;95693.53;;;25.12;66.06
69570;BME280;56781;42.292;23.146;2022-07-29T07:57:47;95684.19;;;25.60;63.27
69570;BME280;56781;42.292;23.146;2022-07-29T08:00:15;95662.66;;;25.26;63.68
69570;BME280;56781;42.292;23.146;2022-07-29T08:02:43;95677.13;;;25.27;66.71
69570;BME280;56781;42.292;23.146;2022-07-29T08:05:12;95638.78;;;25.41;64.61
69570;BME280;56781;42.292;23.146;2022-07-29T08:07:44;95683.34;;;25.81;62.72
69570;BME280;56781;42.292;23.146;2022-07-29T08:10:15;95672.81;;;25.69;64.11
69570;BME280;56781;42.292;23.146;2022-07-29T08:13:06;95685.31;;;26.02;61.36
69570;BME280;56781;42.292;23.146;2022-07-29T08:15:35;95684.78;;;26.39;61.49
69570;BME280;56781;42.292;23.146;2022-07-29T08:18:02;95674.63;;;26.29;64.93
69570;BME280;56781;42.292;23.146;2022-07-29T08:20:35;95688.16;;;26.79;61.23
69570;BME280;56781;42.292;23.146;2022-07-29T08:23:02;95659.44;;;26.91;58.46
69570;BME280;56781;42.292;23.146;2022-07-29T08:25:29;95681.66;;;27.18;59.48
69570;BME280;56781;42.292;23.146;2022-07-29T08:27:56;95681.94;;;26.64;59.58
69570;BME280;56781;42.292;23.146;2022-07-29T08:30:23;95693.97;;;26.88;59.15
69570;BME280;56781;42.292;23.146;2022-07-29T08:32:50;95661.09;;;26.78;57.28
69570;BME280;56781;42.292;23.146;2022-07-29T08:35:21;95688.69;;;27.19;59.57
69570;BME280;56781;42.292;23.146;2022-07-29T08:37:48;95683.97;;;27.19;58.28
69570;BME280;56781;42.292;23.146;2022-07-29T08:40:15;95689.47;;;27.16;59.37
69570;BME280;56781;42.292;23.146;2022-07-29T08:42:43;95674.53;;;27.24;59.07
69570;BME280;56781;42.292;23.146;2022-07-29T08:45:10;95661.63;;;27.17;58.13
69570;BME280;56781;42.292;23.146;2022-07-29T08:47:40;95669.28;;;27.40;61.00
69570;BME280;56781;42.292;23.146;2022-07-29T08:50:09;95649.75;;;27.28;60.05
69570;BME280;56781;42.292;23.146;2022-07-29T08:52:38;95664.56;;;27.45;58.76
69570;BME280;56781;42.292;23.146;2022-07-29T08:55:06;95659.03;;;27.90;56.87
69570;BME280;56781;42.292;23.146;2022-07-29T08:57:34;95656.97;;;27.97;57.96
69570;BME280;56781;42.292;23.146;2022-07-29T09:00:07;95639.81;;;27.86;55.22
69570;BME280;56781;42.292;23.146;2022-07-29T09:02:41;95654.03;;;27.77;55.41
69570;BME280;56781;42.292;23.146;2022-07-29T09:05:12;95609.47;;;27.52;57.79
69570;BME280;56781;42.292;23.146;2022-07-29T09:07:39;95632.91;;;27.67;57.01
69570;BME280;56781;42.292;23.146;2022-07-29T09:10:08;95639.81;;;27.86;56.81
69570;BME280;56781;42.292;23.146;2022-07-29T09:12:36;95645.78;;;27.77;58.21
69570;BME280;56781;42.292;23.146;2022-07-29T09:15:11;95644.44;;;27.93;56.32
69570;BME280;56781;42.292;23.146;2022-07-29T09:17:43;95619.22;;;27.98;59.13
69570;BME280;56781;42.292;23.146;2022-07-29T09:20:16;95643.28;;;27.90;59.67
69570;BME280;56781;42.292;23.146;2022-07-29T09:22:44;95639.69;;;27.97;57.15
69570;BME280;56781;42.292;23.146;2022-07-29T09:25:13;95635.78;;;27.94;56.74
69570;BME280;56781;42.292;23.146;2022-07-29T09:27:40;95628.84;;;27.79;56.68
69570;BME280;56781;42.292;23.146;2022-07-29T09:30:09;95616.34;;;27.74;56.51
69570;BME280;56781;42.292;23.146;2022-07-29T09:32:56;95625.88;;;28.04;56.61
69570;BME280;56781;42.292;23.146;2022-07-29T09:35:26;95618.78;;;28.03;59.71
69570;BME280;56781;42.292;23.146;2022-07-29T09:38:13;95632.28;;;27.90;58.50
69570;BME280;56781;42.292;23.146;2022-07-29T09:40:40;95620.19;;;28.18;58.72
69570;BME280;56781;42.292;23.146;2022-07-29T09:43:11;95632.16;;;28.04;55.91
69570;BME280;56781;42.292;23.146;2022-07-29T09:45:40;95589.53;;;27.78;56.73
69570;BME280;56781;42.292;23.146;2022-07-29T09:48:19;95612.31;;;28.17;59.35
69570;BME280;56781;42.292;23.146;2022-07-29T09:50:47;95592.91;;;28.27;58.56
69570;BME280;56781;42.292;23.146;2022-07-29T09:53:33;95587.41;;;28.27;57.11
69570;BME280;56781;42.292;23.146;2022-07-29T09:56:00;95615.06;;;28.51;56.38
69570;BME280;56781;42.292;23.146;2022-07-29T09:58:27;95590.34;;;28.47;55.42
69570;BME280;56781;42.292;23.146;2022-07-29T10:00:55;95587.19;;;28.42;56.16
69570;BME280;56781;42.292;23.146;2022-07-29T10:03:22;95604.94;;;28.41;56.16
69570;BME280;56781;42.292;23.146;2022-07-29T10:06:10;95555.97;;;28.25;55.95
69570;BME280;56781;42.292;23.146;2022-07-29T10:08:38;95565.44;;;28.24;56.61
69570;BME280;56781;42.292;23.146;2022-07-29T10:11:11;95576.56;;;28.47;54.04
69570;BME280;56781;42.292;23.146;2022-07-29T10:13:40;95569.22;;;28.34;55.79
69570;BME280;56781;42.292;23.146;2022-07-29T10:16:07;95588.81;;;28.70;53.85
69570;BME280;56781;42.292;23.146;2022-07-29T10:18:35;95534.28;;;28.58;57.15
69570;BME280;56781;42.292;23.146;2022-07-29T10:21:01;95564.63;;;28.81;55.62
69570;BME280;56781;42.292;23.146;2022-07-29T10:23:29;95556.19;;;28.92;58.15
69570;BME280;56781;42.292;23.146;2022-07-29T10:26:12;95553.50;;;28.88;57.02
69570;BME280;56781;42.292;23.146;2022-07-29T10:28:40;95569.44;;;29.01;53.96
69570;BME280;56781;42.292;23.146;2022-07-29T10:31:13;95537.72;;;28.65;53.74
69570;BME280;56781;42.292;23.146;2022-07-29T10:34:04;95557.25;;;28.98;53.22
69570;BME280;56781;42.292;23.146;2022-07-29T10:39:24;95547.47;;;29.21;57.31
69570;BME280;56781;42.292;23.146;2022-07-29T10:42:24;95546.44;;;29.11;54.33
69570;BME280;56781;42.292;23.146;2022-07-29T10:45:00;95544.56;;;29.28;51.88
69570;BME280;56781;42.292;23.146;2022-07-29T10:47:27;95515.00;;;29.08;50.55
69570;BME280;56781;42.292;23.146;2022-07-29T10:49:59;95533.31;;;29.19;53.98
69570;BME280;56781;42.292;23.146;2022-07-29T10:55:45;95500.09;;;29.26;50.26
69570;BME280;56781;42.292;23.146;2022-07-29T10:58:20;95525.72;;;29.46;51.96
69570;BME280;56781;42.292;23.146;2022-07-29T11:00:49;95501.50;;;29.34;52.10
69570;BME280;56781;42.292;23.146;2022-07-29T11:03:45;95523.19;;;29.55;48.73
69570;BME280;56781;42.292;23.146;2022-07-29T11:06:15;95506.78;;;29.48;50.27
69570;BME280;56781;42.292;23.146;2022-07-29T11:09:20;95518.84;;;29.78;49.48
69570;BME280;56781;42.292;23.146;2022-07-29T11:12:01;95496.81;;;29.74;50.08
69570;BME280;56781;42.292;23.146;2022-07-29T11:17:18;95486.63;;;29.51;48.92
69570;BME280;56781;42.292;23.146;2022-07-29T11:19:47;95476.22;;;29.59;46.67
69570;BME280;56781;42.292;23.146;2022-07-29T11:22:34;95489.66;;;29.77;46.82
69570;BME280;56781;42.292;23.146;2022-07-29T11:25:28;95502.44;;;30.07;49.23
69570;BME280;56781;42.292;23.146;2022-07-29T11:28:21;95496.44;;;29.92;46.67
69570;BME280;56781;42.292;23.146;2022-07-29T11:30:52;95484.97;;;29.94;49.15
69570;BME280;56781;42.292;23.146;2022-07-29T11:33:28;95483.78;;;29.95;44.37
69570;BME280;56781;42.292;23.146;2022-07-29T11:36:15;95474.81;;;30.07;46.03
69570;BME280;56781;42.292;23.146;2022-07-29T11:38:42;95485.97;;;30.20;45.72
69570;BME280;56781;42.292;23.146;2022-07-29T11:41:23;95494.09;;;30.11;46.91
69570;BME280;56781;42.292;23.146;2022-07-29T11:43:56;95459.19;;;30.00;47.23
69570;BME280;56781;42.292;23.146;2022-07-29T11:46:49;95490.06;;;30.32;48.04
69570;BME280;56781;42.292;23.146;2022-07-29T11:49:24;95453.28;;;30.18;45.05
69570;BME280;56781;42.292;23.146;2022-07-29T11:51:58;95465.81;;;30.23;46.07
69570;BME280;56781;42.292;23.146;2022-07-29T11:54:32;95475.59;;;30.28;44.61
69570;BME280;56781;42.292;23.146;2022-07-29T11:57:20;95460.28;;;30.23;43.52
69570;BME280;56781;42.292;23.146;2022-07-29T11:59:47;95479.22;;;30.41;44.88
69570;BME280;56781;42.292;23.146;2022-07-29T12:02:17;95446.22;;;30.34;45.93
69570;BME280;56781;42.292;23.146;2022-07-29T12:05:04;95458.50;;;30.49;44.51
69570;BME280;56781;42.292;23.146;2022-07-29T12:07:37;95450.91;;;30.53;47.61
69570;BME280;56781;42.292;23.146;2022-07-29T12:10:05;95442.03;;;30.62;43.07
69570;BME280;56781;42.292;23.146;2022-07-29T12:12:37;95448.06;;;30.57;44.79
69570;BME280;56781;42.292;23.146;2022-07-29T12:15:18;95443.97;;;30.78;43.01
69570;BME280;56781;42.292;23.146;2022-07-29T12:17:48;95441.81;;;30.69;44.60
69570;BME280;56781;42.292;23.146;2022-07-29T12:20:26;95440.94;;;30.72;40.95
69570;BME280;56781;42.292;23.146;2022-07-29T12:22:55;95459.78;;;30.77;41.42
69570;BME280;56781;42.292;23.146;2022-07-29T12:25:23;95434.16;;;30.60;41.62
69570;BME280;56781;42.292;23.146;2022-07-29T12:28:03;95438.38;;;30.65;46.45
69570;BME280;56781;42.292;23.146;2022-07-29T12:30:39;95461.88;;;30.89;44.33
69570;BME280;56781;42.292;23.146;2022-07-29T12:33:27;95453.72;;;30.99;42.50
69570;BME280;56781;42.292;23.146;2022-07-29T12:36:00;95409.38;;;30.57;45.23
69570;BME280;56781;42.292;23.146;2022-07-29T12:38:43;95446.31;;;30.79;43.93
69570;BME280;56781;42.292;23.146;2022-07-29T12:41:11;95439.06;;;30.85;39.35
69570;BME280;56781;42.292;23.146;2022-07-29T12:43:52;95435.94;;;30.83;41.70
69570;BME280;56781;42.292;23.146;2022-07-29T12:46:21;95408.56;;;30.56;38.69
69570;BME280;56781;42.292;23.146;2022-07-29T12:48:51;95434.25;;;30.57;39.26
69570;BME280;56781;42.292;23.146;2022-07-29T12:51:31;95423.19;;;30.57;38.09
69570;BME280;56781;42.292;23.146;2022-07-29T12:54:07;95429.81;;;30.76;41.33
69570;BME280;56781;42.292;23.146;2022-07-29T12:56:34;95425.94;;;30.73;42.90
69570;BME280;56781;42.292;23.146;2022-07-29T12:59:21;95408.16;;;30.58;40.88
69570;BME280;56781;42.292;23.146;2022-07-29T13:01:52;95413.16;;;30.63;41.58
69570;BME280;56781;42.292;23.146;2022-07-29T13:04:26;95417.47;;;30.64;42.05
69570;BME280;56781;42.292;23.146;2022-07-29T13:07:04;95424.19;;;30.79;40.65
69570;BME280;56781;42.292;23.146;2022-07-29T13:09:45;95401.38;;;30.75;41.22
69570;BME280;56781;42.292;23.146;2022-07-29T13:12:13;95415.59;;;31.06;40.04
69570;BME280;56781;42.292;23.146;2022-07-29T13:14:42;95400.59;;;30.91;39.71
69570;BME280;56781;42.292;23.146;2022-07-29T13:17:12;95390.53;;;30.84;41.79
69570;BME280;56781;42.292;23.146;2022-07-29T13:19:45;95404.31;;;31.01;42.95
69570;BME280;56781;42.292;23.146;2022-07-29T13:22:21;95394.94;;;30.82;41.56
69570;BME280;56781;42.292;23.146;2022-07-29T13:24:54;95397.56;;;31.02;41.78
69570;BME280;56781;42.292;23.146;2022-07-29T13:27:26;95383.59;;;30.92;40.95